Time;durP1;ratioP1;P1;durP2;ratioP2;P2;SDS_P1;SDS_P2;PMS_P1;PMS_P2;Temp;Humidity;BMP_temperature;BMP_pressure;BME280_temperature;BME280_humidity;BME280_pressure;Samples;Min_cycle;Max_cycle;Signal;HPM_P1;HPM_P2
2022/12/08 00:02:57;;;;;;;39.13;23.58;;;;;;;;;;4999133;28;20054;-70
2022/12/08 00:10:53;;;;;;;35.13;22.35;;;;;;;;;;5000203;28;20065;-66
2022/12/08 00:13:19;;;;;;;35.58;22.40;;;;;;;;;;4990961;28;20609;-64
2022/12/08 00:15:45;;;;;;;35.17;23.08;;;;;;;;;;4973564;28;20060;-66
2022/12/08 00:18:11;;;;;;;37.45;23.05;;;;;;;;;;4995386;28;20629;-66
2022/12/08 00:20:37;;;;;;;38.60;23.85;;;;;;;;;;4989125;28;20045;-68
2022/12/08 00:23:03;;;;;;;37.90;24.42;;;;;;;;;;4996787;28;20080;-67
2022/12/08 00:25:33;;;;;;;39.20;24.08;;;;;;;;;;4993229;28;20061;-68
2022/12/08 00:27:59;;;;;;;37.03;24.15;;;;;;;;;;4990810;28;20073;-66
2022/12/08 00:30:25;;;;;;;35.53;23.05;;;;;;;;;;4991647;28;20046;-70
2022/12/08 00:32:51;;;;;;;38.80;24.00;;;;;;;;;;4993483;28;20062;-65
2022/12/08 00:35:17;;;;;;;35.13;24.00;;;;;;;;;;4989314;28;20068;-67
2022/12/08 00:37:43;;;;;;;41.90;25.10;;;;;;;;;;4987807;28;20050;-66
2022/12/08 00:40:09;;;;;;;34.97;24.33;;;;;;;;;;4990929;28;21528;-68
2022/12/08 00:42:35;;;;;;;35.70;24.75;;;;;;;;;;4991559;28;22174;-66
2022/12/08 00:45:01;;;;;;;39.63;24.48;;;;;;;;;;4997224;28;20062;-66
2022/12/08 00:47:27;;;;;;;38.28;24.50;;;;;;;;;;4989344;28;20854;-66
2022/12/08 00:49:53;;;;;;;37.85;24.90;;;;;;;;;;4990477;28;20528;-67
2022/12/08 00:52:19;;;;;;;41.10;24.63;;;;;;;;;;4986827;28;20050;-68
2022/12/08 00:54:45;;;;;;;37.33;24.50;;;;;;;;;;4989123;28;20062;-64
2022/12/08 00:57:11;;;;;;;39.72;25.13;;;;;;;;;;4989737;28;20061;-65
2022/12/08 00:59:37;;;;;;;34.60;23.45;;;;;;;;;;4993792;28;20046;-66
2022/12/08 01:02:03;;;;;;;37.92;23.30;;;;;;;;;;4979298;28;20049;-63
2022/12/08 01:04:29;;;;;;;37.22;24.38;;;;;;;;;;5002544;28;20103;-66
2022/12/08 01:06:55;;;;;;;40.95;23.75;;;;;;;;;;4993669;28;20058;-68
2022/12/08 01:09:21;;;;;;;34.78;22.23;;;;;;;;;;4997024;28;20057;-64
2022/12/08 01:11:47;;;;;;;36.72;23.73;;;;;;;;;;5004702;28;20050;-64
2022/12/08 01:14:14;;;;;;;33.38;23.38;;;;;;;;;;4999308;28;20076;-64
2022/12/08 01:16:40;;;;;;;37.38;23.65;;;;;;;;;;4996194;28;20069;-67
2022/12/08 01:19:06;;;;;;;32.45;21.42;;;;;;;;;;5004037;28;20050;-64
2022/12/08 01:21:32;;;;;;;38.22;22.35;;;;;;;;;;5002700;28;20065;-68
2022/12/08 01:23:59;;;;;;;32.58;22.33;;;;;;;;;;4997647;28;20142;-64
2022/12/08 01:26:25;;;;;;;30.17;21.88;;;;;;;;;;4997167;28;20559;-70
2022/12/08 01:28:51;;;;;;;36.35;22.02;;;;;;;;;;5005439;28;20041;-65
2022/12/08 01:31:20;;;;;;;31.92;21.55;;;;;;;;;;5008915;28;20052;-65
2022/12/08 01:33:47;;;;;;;31.60;21.42;;;;;;;;;;5001778;28;20085;-65
2022/12/08 01:36:23;;;;;;;33.97;20.40;;;;;;;;;;5002841;28;20753;-66
2022/12/08 01:38:50;;;;;;;31.63;21.05;;;;;;;;;;4998796;28;20096;-64
2022/12/08 01:41:31;;;;;;;33.65;21.05;;;;;;;;;;4981372;28;20054;-65
2022/12/08 01:44:07;;;;;;;34.60;20.85;;;;;;;;;;5005711;28;20058;-63
2022/12/08 01:46:35;;;;;;;36.95;20.48;;;;;;;;;;4998707;28;20050;-63
2022/12/08 01:49:22;;;;;;;33.08;20.05;;;;;;;;;;4998313;28;20058;-66
2022/12/08 01:52:03;;;;;;;27.15;19.17;;;;;;;;;;4977360;28;20418;-63
2022/12/08 01:54:35;;;;;;;35.38;20.27;;;;;;;;;;5000226;28;20124;-63
2022/12/08 01:57:12;;;;;;;28.63;19.20;;;;;;;;;;5003558;28;20045;-65
2022/12/08 01:59:43;;;;;;;29.08;19.20;;;;;;;;;;5004690;28;20041;-63
2022/12/08 02:02:11;;;;;;;33.70;20.65;;;;;;;;;;5002038;28;20129;-64
2022/12/08 02:04:37;;;;;;;28.70;19.73;;;;;;;;;;5001825;28;20053;-64
2022/12/08 02:07:05;;;;;;;30.00;20.50;;;;;;;;;;4997732;28;20142;-67
2022/12/08 02:09:32;;;;;;;27.38;19.33;;;;;;;;;;4999786;28;20076;-63
2022/12/08 02:11:59;;;;;;;30.40;19.30;;;;;;;;;;4994643;28;20073;-64
2022/12/08 02:14:25;;;;;;;25.30;18.65;;;;;;;;;;5001606;28;20524;-65
2022/12/08 02:16:57;;;;;;;27.17;19.33;;;;;;;;;;5005138;28;20077;-64
2022/12/08 02:19:29;;;;;;;26.73;18.58;;;;;;;;;;4995048;28;20516;-67
2022/12/08 02:22:11;;;;;;;29.25;18.98;;;;;;;;;;4998340;28;20050;-64
2022/12/08 02:24:58;;;;;;;26.90;18.42;;;;;;;;;;4995073;28;20057;-66
2022/12/08 02:27:41;;;;;;;28.52;18.60;;;;;;;;;;4983221;28;20061;-65
2022/12/08 02:30:25;;;;;;;26.60;18.83;;;;;;;;;;4994987;28;20093;-64
2022/12/08 02:33:00;;;;;;;26.65;19.08;;;;;;;;;;4999027;28;20145;-64
2022/12/08 02:35:38;;;;;;;29.52;18.35;;;;;;;;;;4983454;28;20049;-65
2022/12/08 02:38:34;;;;;;;27.63;18.45;;;;;;;;;;4988083;28;20050;-63
2022/12/08 02:41:14;;;;;;;26.00;18.27;;;;;;;;;;4991786;28;20062;-64
2022/12/08 02:43:47;;;;;;;34.10;18.48;;;;;;;;;;4989735;28;20054;-66
2022/12/08 02:46:28;;;;;;;26.17;17.70;;;;;;;;;;4989217;28;20189;-64
2022/12/08 02:48:55;;;;;;;30.70;19.00;;;;;;;;;;4990184;28;20108;-64
2022/12/08 02:51:21;;;;;;;27.08;19.00;;;;;;;;;;4990333;28;22580;-63
2022/12/08 02:53:47;;;;;;;27.35;18.67;;;;;;;;;;4990061;28;20058;-64
2022/12/08 02:56:25;;;;;;;30.27;19.25;;;;;;;;;;4997389;28;20046;-66
2022/12/08 02:59:06;;;;;;;27.48;18.77;;;;;;;;;;4999070;28;20065;-63
2022/12/08 03:01:45;;;;;;;27.00;18.95;;;;;;;;;;5000007;28;20109;-63
2022/12/08 03:04:24;;;;;;;28.25;18.50;;;;;;;;;;5003663;28;20046;-64
2022/12/08 03:06:56;;;;;;;28.60;17.20;;;;;;;;;;4990868;28;21916;-61
2022/12/08 03:09:40;;;;;;;36.60;18.35;;;;;;;;;;4996010;28;20049;-64
2022/12/08 03:12:22;;;;;;;29.95;18.35;;;;;;;;;;5003099;28;20513;-63
2022/12/08 03:14:52;;;;;;;32.75;18.60;;;;;;;;;;4993072;28;20390;-64
2022/12/08 03:17:22;;;;;;;26.77;18.45;;;;;;;;;;4993571;28;20060;-65
2022/12/08 03:19:48;;;;;;;31.50;19.58;;;;;;;;;;5001175;28;20046;-70
2022/12/08 03:22:20;;;;;;;32.63;21.15;;;;;;;;;;4995405;28;20163;-69
2022/12/08 03:24:46;;;;;;;33.55;21.35;;;;;;;;;;5002254;28;20191;-64
2022/12/08 03:27:23;;;;;;;29.52;21.20;;;;;;;;;;5004245;28;20057;-64
2022/12/08 03:29:52;;;;;;;34.88;21.58;;;;;;;;;;5001725;28;20049;-67
2022/12/08 03:32:40;;;;;;;35.13;21.95;;;;;;;;;;4998088;28;20390;-64
2022/12/08 03:35:10;;;;;;;35.90;22.42;;;;;;;;;;4998831;28;20161;-64
2022/12/08 03:37:38;;;;;;;28.08;20.38;;;;;;;;;;4990356;28;20058;-63
2022/12/08 03:40:08;;;;;;;29.95;21.25;;;;;;;;;;5003324;28;20109;-64
2022/12/08 03:42:34;;;;;;;33.85;21.95;;;;;;;;;;4998850;28;20717;-63
2022/12/08 03:45:00;;;;;;;33.25;21.60;;;;;;;;;;4993172;28;20058;-65
2022/12/08 03:47:26;;;;;;;33.75;21.15;;;;;;;;;;5002170;28;20053;-64
2022/12/08 03:49:51;;;;;;;33.03;20.48;;;;;;;;;;4991527;28;20096;-65
2022/12/08 03:52:17;;;;;;;27.63;20.48;;;;;;;;;;4991839;28;20513;-65
2022/12/08 03:54:43;;;;;;;38.25;20.27;;;;;;;;;;4995628;28;20096;-65
2022/12/08 03:57:10;;;;;;;28.30;20.15;;;;;;;;;;4983805;28;20115;-64
2022/12/08 03:59:35;;;;;;;32.60;19.70;;;;;;;;;;5002911;28;20054;-65
2022/12/08 04:02:01;;;;;;;32.85;20.88;;;;;;;;;;5000181;28;20050;-63
2022/12/08 04:04:27;;;;;;;31.58;20.15;;;;;;;;;;4996447;28;20115;-64
2022/12/08 04:06:53;;;;;;;30.60;20.02;;;;;;;;;;4993100;28;20116;-64
2022/12/08 04:09:19;;;;;;;28.17;20.35;;;;;;;;;;5002331;28;20053;-62
2022/12/08 04:11:45;;;;;;;28.20;19.63;;;;;;;;;;5001720;28;20129;-63
2022/12/08 04:14:11;;;;;;;30.83;20.55;;;;;;;;;;5003441;28;20100;-63
2022/12/08 04:16:37;;;;;;;26.15;19.40;;;;;;;;;;4999546;28;20038;-65
2022/12/08 04:19:03;;;;;;;30.88;19.60;;;;;;;;;;4998567;28;20056;-62
2022/12/08 04:21:29;;;;;;;28.17;20.38;;;;;;;;;;4983136;28;20069;-63
2022/12/08 04:23:55;;;;;;;32.55;20.30;;;;;;;;;;4992440;28;20136;-63
2022/12/08 04:26:21;;;;;;;30.42;19.80;;;;;;;;;;5002614;28;20107;-62
2022/12/08 04:28:47;;;;;;;26.75;19.17;;;;;;;;;;4997767;28;20501;-64
2022/12/08 04:31:13;;;;;;;29.15;19.88;;;;;;;;;;4995297;28;20053;-63
2022/12/08 04:33:39;;;;;;;31.40;19.73;;;;;;;;;;4992467;28;20046;-63
2022/12/08 04:36:05;;;;;;;25.98;18.90;;;;;;;;;;4996785;28;20053;-64
2022/12/08 04:38:32;;;;;;;25.60;18.30;;;;;;;;;;4994269;28;20576;-64
2022/12/08 04:40:58;;;;;;;27.50;17.58;;;;;;;;;;4999479;28;20042;-62
2022/12/08 04:43:24;;;;;;;28.10;18.30;;;;;;;;;;5003966;28;20053;-65
2022/12/08 04:45:50;;;;;;;29.42;18.42;;;;;;;;;;4992319;28;20107;-66
2022/12/08 04:48:16;;;;;;;28.35;17.92;;;;;;;;;;4971290;28;20472;-63
2022/12/08 04:50:44;;;;;;;32.30;18.40;;;;;;;;;;4989669;28;20071;-62
2022/12/08 04:53:11;;;;;;;25.85;18.85;;;;;;;;;;4970658;28;20050;-64
2022/12/08 04:55:42;;;;;;;35.75;18.90;;;;;;;;;;4992215;28;20107;-62
2022/12/08 04:58:13;;;;;;;28.33;18.90;;;;;;;;;;4998982;28;20619;-64
2022/12/08 05:00:40;;;;;;;25.40;18.00;;;;;;;;;;4993726;28;20453;-63
2022/12/08 05:03:05;;;;;;;26.92;18.98;;;;;;;;;;4982308;28;20042;-64
2022/12/08 05:05:32;;;;;;;27.08;18.80;;;;;;;;;;4997894;28;20054;-63
2022/12/08 05:07:57;;;;;;;35.70;18.98;;;;;;;;;;4994275;28;20046;-63
2022/12/08 05:10:24;;;;;;;32.47;18.98;;;;;;;;;;4996166;28;20053;-62
2022/12/08 05:12:50;;;;;;;34.50;19.30;;;;;;;;;;4989663;28;20053;-67
2022/12/08 05:15:16;;;;;;;30.33;20.17;;;;;;;;;;4990295;28;20046;-64
2022/12/08 05:17:41;;;;;;;27.40;18.77;;;;;;;;;;4976621;28;20116;-65
2022/12/08 05:20:08;;;;;;;28.10;19.25;;;;;;;;;;5000192;28;20050;-63
2022/12/08 05:22:34;;;;;;;29.55;19.38;;;;;;;;;;5001039;28;20046;-64
2022/12/08 05:25:00;;;;;;;30.08;19.42;;;;;;;;;;4991495;28;20041;-64
2022/12/08 05:27:26;;;;;;;31.05;19.48;;;;;;;;;;4996162;28;20054;-64
2022/12/08 05:29:52;;;;;;;27.40;19.45;;;;;;;;;;4986437;28;20050;-63
2022/12/08 05:32:18;;;;;;;28.05;18.70;;;;;;;;;;4993073;28;20065;-64
2022/12/08 05:34:44;;;;;;;28.27;18.02;;;;;;;;;;4990991;28;20062;-65
2022/12/08 05:37:10;;;;;;;23.58;16.75;;;;;;;;;;4997180;28;20392;-63
2022/12/08 05:39:36;;;;;;;24.50;16.83;;;;;;;;;;4997535;28;20112;-64
2022/12/08 05:42:02;;;;;;;23.58;16.35;;;;;;;;;;4992663;28;20054;-63
2022/12/08 05:44:28;;;;;;;30.77;16.77;;;;;;;;;;5000154;28;20050;-63
2022/12/08 05:46:54;;;;;;;24.98;15.82;;;;;;;;;;4993381;28;20049;-64
2022/12/08 05:49:20;;;;;;;25.33;15.68;;;;;;;;;;4996245;28;20100;-63
2022/12/08 05:51:46;;;;;;;23.40;15.40;;;;;;;;;;4989177;28;20046;-65
2022/12/08 05:54:13;;;;;;;21.38;14.93;;;;;;;;;;4989860;28;20057;-66
2022/12/08 05:56:38;;;;;;;21.33;15.40;;;;;;;;;;4995543;28;20042;-64
2022/12/08 05:59:06;;;;;;;23.27;15.75;;;;;;;;;;4997205;28;20045;-63
2022/12/08 06:01:32;;;;;;;23.40;15.35;;;;;;;;;;5001412;28;20049;-63
2022/12/08 06:04:00;;;;;;;24.08;17.23;;;;;;;;;;5005471;28;20041;-62
2022/12/08 06:06:27;;;;;;;23.40;15.57;;;;;;;;;;5001068;28;20155;-64
2022/12/08 06:08:53;;;;;;;25.40;15.93;;;;;;;;;;4998857;28;20052;-66
2022/12/08 06:11:28;;;;;;;21.35;15.15;;;;;;;;;;4975100;28;20046;-63
2022/12/08 06:13:55;;;;;;;25.27;16.58;;;;;;;;;;4995192;28;20046;-66
2022/12/08 06:16:22;;;;;;;28.77;16.30;;;;;;;;;;4991508;28;20564;-64
2022/12/08 06:18:48;;;;;;;25.75;15.30;;;;;;;;;;4999967;28;20065;-64
2022/12/08 06:21:16;;;;;;;21.90;15.73;;;;;;;;;;4982963;28;20079;-70
2022/12/08 06:23:42;;;;;;;22.50;15.27;;;;;;;;;;4995379;28;20057;-64
2022/12/08 06:26:11;;;;;;;22.55;14.52;;;;;;;;;;5003083;28;20136;-63
2022/12/08 06:28:38;;;;;;;21.92;14.30;;;;;;;;;;5000535;28;20053;-65
2022/12/08 06:31:09;;;;;;;21.30;14.73;;;;;;;;;;4990852;28;21048;-64
2022/12/08 06:33:37;;;;;;;20.27;13.88;;;;;;;;;;4992305;28;20054;-64
2022/12/08 06:36:04;;;;;;;23.42;14.60;;;;;;;;;;5000571;28;20041;-62
2022/12/08 06:38:30;;;;;;;20.80;14.10;;;;;;;;;;4992633;28;20079;-64
2022/12/08 06:40:57;;;;;;;23.55;14.23;;;;;;;;;;4999686;28;20058;-64
2022/12/08 06:43:24;;;;;;;27.80;13.25;;;;;;;;;;5002316;28;20062;-64
2022/12/08 06:45:50;;;;;;;18.45;13.60;;;;;;;;;;4994342;28;20065;-66
2022/12/08 06:48:17;;;;;;;16.30;12.13;;;;;;;;;;4972556;28;20060;-64
2022/12/08 06:50:43;;;;;;;18.73;13.15;;;;;;;;;;4973697;28;20054;-65
2022/12/08 06:53:14;;;;;;;25.42;13.98;;;;;;;;;;4972738;28;20061;-62
2022/12/08 06:55:51;;;;;;;18.88;12.38;;;;;;;;;;4984816;28;20049;-63
2022/12/08 06:58:18;;;;;;;26.15;12.80;;;;;;;;;;4995286;28;20786;-65
2022/12/08 07:00:44;;;;;;;22.98;13.52;;;;;;;;;;4999470;28;20058;-63
2022/12/08 07:03:11;;;;;;;26.33;14.68;;;;;;;;;;5001255;28;20409;-65
2022/12/08 07:05:38;;;;;;;21.65;13.80;;;;;;;;;;4992701;28;20521;-64
2022/12/08 07:08:06;;;;;;;17.85;12.70;;;;;;;;;;4988265;28;20053;-65
2022/12/08 07:10:32;;;;;;;20.98;13.93;;;;;;;;;;4992210;28;20620;-66
2022/12/08 07:12:58;;;;;;;20.10;13.25;;;;;;;;;;4994363;28;20053;-65
2022/12/08 07:15:24;;;;;;;19.67;13.20;;;;;;;;;;4995264;28;20058;-63
2022/12/08 07:17:51;;;;;;;21.05;13.85;;;;;;;;;;4993462;28;20702;-62
2022/12/08 07:20:17;;;;;;;18.92;13.77;;;;;;;;;;5002237;28;20462;-63
2022/12/08 07:22:50;;;;;;;20.75;13.45;;;;;;;;;;4999342;28;20054;-63
2022/12/08 07:25:17;;;;;;;19.50;13.68;;;;;;;;;;4997772;28;20291;-63
2022/12/08 07:27:44;;;;;;;20.35;13.50;;;;;;;;;;4996465;28;20398;-64
2022/12/08 07:30:10;;;;;;;22.17;13.55;;;;;;;;;;4997108;28;20050;-64
2022/12/08 07:32:37;;;;;;;18.88;13.60;;;;;;;;;;4999874;28;20060;-64
2022/12/08 07:35:05;;;;;;;19.98;13.38;;;;;;;;;;4992216;28;20053;-63
2022/12/08 07:37:33;;;;;;;19.98;12.70;;;;;;;;;;4989830;28;20057;-65
2022/12/08 07:39:59;;;;;;;20.73;13.25;;;;;;;;;;4986548;28;20554;-63
2022/12/08 07:42:27;;;;;;;24.48;13.68;;;;;;;;;;4974360;28;20049;-68
2022/12/08 07:44:52;;;;;;;22.13;13.15;;;;;;;;;;5000259;28;20136;-64
2022/12/08 07:47:19;;;;;;;16.90;12.18;;;;;;;;;;4989213;28;20053;-64
2022/12/08 07:49:44;;;;;;;18.52;13.18;;;;;;;;;;4990004;28;20046;-64
2022/12/08 07:52:10;;;;;;;22.48;13.65;;;;;;;;;;4989969;28;20054;-64
2022/12/08 07:54:36;;;;;;;20.70;13.50;;;;;;;;;;4995727;28;20049;-65
2022/12/08 07:57:04;;;;;;;20.23;12.90;;;;;;;;;;4997874;28;20054;-65
2022/12/08 07:59:31;;;;;;;19.38;13.38;;;;;;;;;;4998433;28;20053;-64
2022/12/08 08:01:57;;;;;;;26.33;14.27;;;;;;;;;;4976067;28;20061;-65
2022/12/08 08:04:23;;;;;;;21.55;13.45;;;;;;;;;;5001833;28;20058;-64
2022/12/08 08:06:49;;;;;;;23.15;13.70;;;;;;;;;;4998849;28;20497;-68
2022/12/08 08:09:15;;;;;;;21.48;13.68;;;;;;;;;;4994143;28;20097;-63
2022/12/08 08:11:41;;;;;;;23.50;14.10;;;;;;;;;;4992871;28;21738;-63
2022/12/08 08:14:07;;;;;;;26.48;13.55;;;;;;;;;;4987853;28;20053;-65
2022/12/08 08:16:33;;;;;;;20.88;13.65;;;;;;;;;;4990267;28;20519;-63
2022/12/08 08:18:59;;;;;;;23.58;13.82;;;;;;;;;;4972443;28;20137;-64
2022/12/08 08:21:25;;;;;;;24.63;13.85;;;;;;;;;;4988622;28;20049;-63
2022/12/08 08:23:51;;;;;;;22.52;13.23;;;;;;;;;;4989043;28;20100;-64
2022/12/08 08:26:17;;;;;;;20.58;13.23;;;;;;;;;;4983180;28;20264;-65
2022/12/08 08:28:44;;;;;;;23.63;13.70;;;;;;;;;;4983678;28;20057;-64
2022/12/08 08:31:11;;;;;;;20.50;13.93;;;;;;;;;;4991531;28;20441;-65
2022/12/08 08:33:38;;;;;;;20.63;13.93;;;;;;;;;;4983343;28;20061;-67
2022/12/08 08:36:08;;;;;;;24.63;13.63;;;;;;;;;;4985353;28;20109;-68
2022/12/08 08:38:38;;;;;;;20.45;14.20;;;;;;;;;;4992869;28;20557;-67
2022/12/08 08:41:09;;;;;;;22.38;14.00;;;;;;;;;;4993697;28;20456;-71
2022/12/08 08:43:35;;;;;;;19.50;13.30;;;;;;;;;;4988847;28;20160;-70
2022/12/08 08:46:03;;;;;;;21.02;13.50;;;;;;;;;;4997594;28;20168;-69
2022/12/08 08:48:30;;;;;;;25.00;13.80;;;;;;;;;;4996798;28;20047;-69
2022/12/08 08:50:57;;;;;;;19.45;12.90;;;;;;;;;;4992582;28;20046;-67
2022/12/08 08:53:23;;;;;;;24.50;14.00;;;;;;;;;;4992990;28;20041;-68
2022/12/08 08:55:50;;;;;;;21.10;12.77;;;;;;;;;;4998296;28;20072;-68
2022/12/08 08:58:16;;;;;;;18.38;12.77;;;;;;;;;;4995170;28;20053;-63
2022/12/08 09:00:42;;;;;;;21.58;12.80;;;;;;;;;;4987356;28;20081;-70
2022/12/08 09:03:08;;;;;;;19.20;12.07;;;;;;;;;;4968752;28;20433;-67
2022/12/08 09:05:37;;;;;;;21.83;13.65;;;;;;;;;;4998797;28;20042;-69
2022/12/08 09:08:03;;;;;;;20.23;12.32;;;;;;;;;;4997687;28;20509;-68
2022/12/08 09:10:29;;;;;;;18.23;12.63;;;;;;;;;;4984732;28;20069;-66
2022/12/08 09:12:55;;;;;;;17.23;11.93;;;;;;;;;;4986143;28;20501;-70
2022/12/08 09:15:21;;;;;;;17.90;11.38;;;;;;;;;;4970379;28;20634;-67
2022/12/08 09:17:47;;;;;;;19.85;11.52;;;;;;;;;;4994385;28;20050;-69
2022/12/08 09:20:13;;;;;;;18.90;11.88;;;;;;;;;;4984195;28;20050;-70
2022/12/08 09:22:39;;;;;;;18.35;11.30;;;;;;;;;;4994495;28;20057;-74
2022/12/08 09:25:05;;;;;;;21.27;12.20;;;;;;;;;;5003524;28;20061;-71
2022/12/08 09:27:31;;;;;;;18.00;11.70;;;;;;;;;;4995843;28;20054;-65
2022/12/08 09:29:57;;;;;;;17.90;12.43;;;;;;;;;;4984465;28;20136;-70
2022/12/08 09:32:23;;;;;;;22.60;14.13;;;;;;;;;;4975376;28;20054;-68
2022/12/08 09:34:50;;;;;;;20.88;12.68;;;;;;;;;;4996460;28;20099;-63
2022/12/08 09:37:16;;;;;;;18.33;12.70;;;;;;;;;;5005301;28;20068;-65
2022/12/08 09:39:42;;;;;;;19.58;12.77;;;;;;;;;;4992287;28;20061;-68
2022/12/08 09:42:10;;;;;;;20.55;13.30;;;;;;;;;;5004124;28;20468;-62
2022/12/08 09:44:48;;;;;;;27.23;14.40;;;;;;;;;;5003352;28;20054;-69
2022/12/08 09:47:27;;;;;;;19.60;13.93;;;;;;;;;;4989615;28;20470;-68
2022/12/08 09:50:28;;;;;;;22.50;14.13;;;;;;;;;;4994527;28;20054;-68
2022/12/08 09:53:00;;;;;;;23.10;13.80;;;;;;;;;;4999339;28;20088;-69
2022/12/08 09:56:06;;;;;;;23.17;15.65;;;;;;;;;;4991914;28;20606;-64
2022/12/08 09:59:16;;;;;;;23.63;17.02;;;;;;;;;;4973567;28;20293;-67
2022/12/08 10:01:42;;;;;;;25.20;17.20;;;;;;;;;;4916404;29;20051;-66
2022/12/08 10:04:19;;;;;;;28.15;17.15;;;;;;;;;;4921870;29;20052;-68
2022/12/08 10:07:11;;;;;;;27.75;16.85;;;;;;;;;;4919636;29;20203;-67
2022/12/08 10:09:59;;;;;;;24.15;17.25;;;;;;;;;;4912693;29;20901;-64
2022/12/08 10:12:53;;;;;;;25.70;16.00;;;;;;;;;;4928180;29;20052;-67
2022/12/08 10:15:33;;;;;;;29.60;16.05;;;;;;;;;;4926392;29;20048;-65
2022/12/08 10:18:02;;;;;;;28.33;15.73;;;;;;;;;;4919169;29;20413;-67
2022/12/08 10:20:40;;;;;;;24.23;16.00;;;;;;;;;;4922829;29;20133;-71
2022/12/08 10:23:06;;;;;;;34.15;16.20;;;;;;;;;;4916271;29;20060;-69
2022/12/08 10:25:40;;;;;;;26.30;15.98;;;;;;;;;;4923477;29;20090;-70
2022/12/08 10:28:07;;;;;;;28.60;17.23;;;;;;;;;;4912717;29;20056;-67
2022/12/08 10:30:33;;;;;;;24.05;16.30;;;;;;;;;;4920782;29;20043;-65
2022/12/08 10:33:00;;;;;;;22.40;16.27;;;;;;;;;;4981718;28;20077;-65
2022/12/08 10:35:43;;;;;;;24.15;16.15;;;;;;;;;;5001393;28;20046;-66
2022/12/08 10:38:21;;;;;;;22.88;15.68;;;;;;;;;;4978306;28;20076;-64
2022/12/08 10:40:49;;;;;;;21.88;15.70;;;;;;;;;;4996074;28;20045;-64
2022/12/08 10:43:23;;;;;;;26.02;16.33;;;;;;;;;;4994787;28;20745;-66
2022/12/08 10:45:49;;;;;;;27.13;16.88;;;;;;;;;;5000365;28;20050;-65
2022/12/08 10:48:18;;;;;;;23.45;15.57;;;;;;;;;;5002190;28;20501;-72
2022/12/08 10:50:45;;;;;;;24.65;16.45;;;;;;;;;;5005478;28;20108;-70
2022/12/08 10:53:32;;;;;;;24.75;16.58;;;;;;;;;;4983880;28;20053;-64
2022/12/08 10:56:00;;;;;;;27.90;17.88;;;;;;;;;;5001388;28;20056;-64
2022/12/08 10:58:35;;;;;;;24.73;17.88;;;;;;;;;;5004695;28;20149;-67
2022/12/08 11:01:08;;;;;;;26.35;18.52;;;;;;;;;;5004827;28;20053;-65
2022/12/08 11:03:39;;;;;;;24.70;19.10;;;;;;;;;;5000495;28;20085;-64
2022/12/08 11:06:16;;;;;;;26.75;18.00;;;;;;;;;;5003219;28;20073;-68
2022/12/08 11:09:01;;;;;;;30.58;18.48;;;;;;;;;;4994729;28;20050;-66
2022/12/08 11:11:45;;;;;;;;;;;;;;;;;;4997178;28;20073;-65
2022/12/08 11:14:27;;;;;;;24.93;17.93;;;;;;;;;;5004506;28;19925;-64
2022/12/08 11:17:04;;;;;;;28.23;18.52;;;;;;;;;;5000784;28;20066;-68
2022/12/08 11:19:30;;;;;;;29.30;18.23;;;;;;;;;;5001585;28;20057;-65
2022/12/08 11:21:56;;;;;;;26.33;18.50;;;;;;;;;;5003720;28;20073;-66
2022/12/08 11:24:24;;;;;;;28.77;19.30;;;;;;;;;;4997017;28;20054;-68
2022/12/08 11:27:05;;;;;;;30.17;20.30;;;;;;;;;;4996086;28;20166;-66
2022/12/08 11:29:34;;;;;;;30.60;20.00;;;;;;;;;;5005651;28;20401;-66
2022/12/08 11:32:11;;;;;;;30.10;20.70;;;;;;;;;;4998894;28;20054;-67
2022/12/08 11:34:43;;;;;;;31.45;20.67;;;;;;;;;;4997230;28;20056;-67
2022/12/08 11:37:18;;;;;;;30.15;20.77;;;;;;;;;;4993072;28;20053;-66
2022/12/08 11:39:48;;;;;;;37.83;21.08;;;;;;;;;;4993416;28;20050;-65
2022/12/08 11:42:18;;;;;;;27.88;20.20;;;;;;;;;;4981853;28;20532;-68
2022/12/08 11:44:51;;;;;;;33.92;20.92;;;;;;;;;;4987978;28;20069;-66
2022/12/08 11:47:45;;;;;;;34.15;20.98;;;;;;;;;;4978543;28;20314;-66
2022/12/08 11:50:24;;;;;;;35.78;21.23;;;;;;;;;;4971407;28;20494;-66
2022/12/08 11:52:51;;;;;;;31.88;22.08;;;;;;;;;;4994861;28;20061;-66
2022/12/08 11:55:38;;;;;;;33.63;22.35;;;;;;;;;;4978055;28;20050;-65
2022/12/08 11:58:13;;;;;;;30.58;20.90;;;;;;;;;;4961473;28;20559;-65
2022/12/08 12:00:39;;;;;;;33.05;21.70;;;;;;;;;;4985129;28;20428;-64
2022/12/08 12:03:31;;;;;;;34.97;21.35;;;;;;;;;;4993413;28;20046;-65
2022/12/08 12:06:26;;;;;;;30.33;20.75;;;;;;;;;;4994709;28;20050;-65
2022/12/08 12:09:10;;;;;;;32.88;21.83;;;;;;;;;;4999996;28;20061;-65
2022/12/08 12:15:08;;;;;;;33.38;20.95;;;;;;;;;;4997081;28;20049;-64
2022/12/08 12:17:53;;;;;;;33.42;20.85;;;;;;;;;;4986974;28;20124;-65
2022/12/08 12:20:25;;;;;;;30.65;21.60;;;;;;;;;;4996788;28;20141;-64
2022/12/08 12:23:17;;;;;;;35.25;21.80;;;;;;;;;;5001605;28;20053;-65
2022/12/08 12:26:16;;;;;;;36.22;22.35;;;;;;;;;;4989114;28;20128;-68
2022/12/08 12:28:56;;;;;;;31.27;21.73;;;;;;;;;;4999636;28;20058;-67
2022/12/08 12:31:32;;;;;;;30.73;21.27;;;;;;;;;;4967082;28;20117;-66
2022/12/08 12:34:06;;;;;;;31.73;22.88;;;;;;;;;;4977353;28;20042;-67
2022/12/08 12:36:45;;;;;;;34.75;23.15;;;;;;;;;;4962067;28;20311;-65
2022/12/08 12:39:13;;;;;;;33.40;21.33;;;;;;;;;;4983520;28;20054;-66
2022/12/08 12:45:18;;;;;;;39.28;22.13;;;;;;;;;;4971565;28;20122;-69
2022/12/08 12:47:49;;;;;;;34.05;22.02;;;;;;;;;;4970320;28;20108;-63
2022/12/08 12:50:48;;;;;;;31.35;22.85;;;;;;;;;;4975655;28;20039;-65
2022/12/08 12:53:15;;;;;;;31.58;22.52;;;;;;;;;;4969683;28;20045;-66
2022/12/08 12:56:01;;;;;;;37.92;23.33;;;;;;;;;;4970830;28;20058;-67
2022/12/08 12:58:27;;;;;;;36.53;24.17;;;;;;;;;;4973978;28;20077;-66
2022/12/08 13:01:11;;;;;;;55.55;38.65;;;;;;;;;;4983351;28;20093;-71
2022/12/08 13:03:39;;;;;;;41.47;30.05;;;;;;;;;;4979030;28;20050;-68
2022/12/08 13:06:06;;;;;;;35.47;24.63;;;;;;;;;;4977794;28;20082;-67
2022/12/08 13:08:32;;;;;;;36.22;24.15;;;;;;;;;;4970716;28;20045;-69
2022/12/08 13:11:10;;;;;;;33.45;22.88;;;;;;;;;;4973965;28;20051;-66
2022/12/08 13:13:37;;;;;;;40.42;24.50;;;;;;;;;;4980515;28;20050;-66
2022/12/08 13:16:09;;;;;;;33.17;23.45;;;;;;;;;;4978075;28;20074;-66
2022/12/08 13:19:13;;;;;;;34.88;24.52;;;;;;;;;;4981926;28;20054;-66
2022/12/08 13:21:39;;;;;;;39.13;23.85;;;;;;;;;;4867092;29;20045;-65
2022/12/08 13:24:18;;;;;;;35.58;23.88;;;;;;;;;;4867556;29;20139;-67
2022/12/08 13:27:02;;;;;;;38.17;24.00;;;;;;;;;;4864400;29;20083;-66
2022/12/08 13:29:36;;;;;;;35.58;22.95;;;;;;;;;;4863459;29;20056;-64
2022/12/08 13:32:08;;;;;;;36.13;23.42;;;;;;;;;;4862707;29;20122;-62
2022/12/08 13:34:49;;;;;;;32.05;22.60;;;;;;;;;;4864273;29;20501;-64
2022/12/08 13:37:26;;;;;;;33.25;22.60;;;;;;;;;;4864752;29;20536;-65
2022/12/08 13:40:02;;;;;;;36.67;23.65;;;;;;;;;;4866813;29;20056;-64
2022/12/08 13:42:46;;;;;;;36.05;23.73;;;;;;;;;;4875004;29;20187;-62
2022/12/08 13:45:12;;;;;;;;;;;;;;;;;;4866706;29;20049;-62
2022/12/08 13:47:51;;;;;;;34.17;22.65;;;;;;;;;;4864520;29;20351;-65
2022/12/08 13:50:28;;;;;;;32.47;22.08;;;;;;;;;;4863877;29;20144;-63
2022/12/08 13:53:01;;;;;;;34.38;22.45;;;;;;;;;;4865635;29;20060;-63
2022/12/08 13:55:37;;;;;;;32.70;22.40;;;;;;;;;;4907374;28;20058;-64
2022/12/08 13:58:03;;;;;;;34.47;23.85;;;;;;;;;;4972648;28;20050;-67
2022/12/08 14:00:29;;;;;;;31.77;21.95;;;;;;;;;;4970214;28;20058;-65
2022/12/08 14:02:58;;;;;;;34.35;21.88;;;;;;;;;;4974829;28;20113;-64
2022/12/08 14:05:27;;;;;;;32.88;21.63;;;;;;;;;;4973070;28;20077;-68
2022/12/08 14:07:55;;;;;;;34.78;22.30;;;;;;;;;;4977106;28;20058;-65
2022/12/08 14:10:23;;;;;;;31.05;22.70;;;;;;;;;;4980134;28;20529;-63
2022/12/08 14:13:02;;;;;;;32.58;22.35;;;;;;;;;;4973406;28;20050;-63
2022/12/08 14:15:32;;;;;;;32.63;22.55;;;;;;;;;;4979823;28;20042;-65
2022/12/08 14:17:58;;;;;;;35.83;23.10;;;;;;;;;;4980037;28;20046;-64
2022/12/08 14:20:30;;;;;;;29.77;21.00;;;;;;;;;;4985267;28;20061;-62
2022/12/08 14:22:57;;;;;;;32.72;22.67;;;;;;;;;;4980365;28;20053;-62
2022/12/08 14:25:25;;;;;;;32.35;22.45;;;;;;;;;;4980432;28;20050;-64
2022/12/08 14:27:57;;;;;;;31.25;21.70;;;;;;;;;;4971860;28;20081;-62
2022/12/08 14:30:27;;;;;;;35.17;22.48;;;;;;;;;;4977197;28;20058;-65
2022/12/08 14:32:57;;;;;;;34.83;22.38;;;;;;;;;;4992435;28;20049;-63
2022/12/08 14:35:37;;;;;;;34.15;22.95;;;;;;;;;;5000715;28;20051;-65
2022/12/08 14:38:15;;;;;;;35.05;23.40;;;;;;;;;;5000302;28;20121;-71
2022/12/08 14:40:47;;;;;;;32.08;22.88;;;;;;;;;;4999048;28;20058;-64
2022/12/08 14:43:19;;;;;;;34.75;23.42;;;;;;;;;;5002836;28;20092;-65
2022/12/08 14:45:45;;;;;;;33.90;23.50;;;;;;;;;;4999228;28;20425;-65
2022/12/08 14:48:17;;;;;;;30.55;21.83;;;;;;;;;;4999942;28;20045;-66
2022/12/08 14:50:54;;;;;;;30.38;22.95;;;;;;;;;;4998375;28;20505;-63
2022/12/08 14:53:20;;;;;;;32.20;22.80;;;;;;;;;;5002617;28;20057;-63